sensor_id;sensor_type;location;lat;lon;timestamp;temperature;humidity
82877;DHT22;72655;47.596;7.658;2023-10-19T06:39:44;12.60;99.90
82877;DHT22;72655;47.596;7.658;2023-10-19T06:42:11;12.70;99.90
82877;DHT22;72655;47.596;7.658;2023-10-19T06:44:41;12.70;99.90
82877;DHT22;72655;47.596;7.658;2023-10-19T06:47:09;12.80;99.90
82877;DHT22;72655;47.596;7.658;2023-10-19T06:49:36;12.80;99.90
82877;DHT22;72655;47.596;7.658;2023-10-19T06:52:03;12.90;99.90
82877;DHT22;72655;47.596;7.658;2023-10-19T06:54:31;12.90;99.90
82877;DHT22;72655;47.596;7.658;2023-10-19T06:57:00;12.90;99.90
82877;DHT22;72655;47.596;7.658;2023-10-19T06:59:29;12.90;99.90
82877;DHT22;72655;47.596;7.658;2023-10-19T07:01:59;13.00;99.90
82877;DHT22;72655;47.596;7.658;2023-10-19T07:04:27;13.00;99.90
82877;DHT22;72655;47.596;7.658;2023-10-19T07:06:54;13.00;99.90
82877;DHT22;72655;47.596;7.658;2023-10-19T07:09:22;13.00;99.90
82877;DHT22;72655;47.596;7.658;2023-10-19T07:11:49;13.00;99.90
82877;DHT22;72655;47.596;7.658;2023-10-19T07:14:20;13.00;99.90
82877;DHT22;72655;47.596;7.658;2023-10-19T07:16:48;13.10;99.90
82877;DHT22;72655;47.596;7.658;2023-10-19T07:19:16;13.20;99.90
82877;DHT22;72655;47.596;7.658;2023-10-19T07:21:43;13.20;99.90
82877;DHT22;72655;47.596;7.658;2023-10-19T07:24:15;13.30;99.90
82877;DHT22;72655;47.596;7.658;2023-10-19T07:26:45;13.30;99.90
82877;DHT22;72655;47.596;7.658;2023-10-19T07:29:29;13.20;99.90
82877;DHT22;72655;47.596;7.658;2023-10-19T07:31:57;13.20;99.90
82877;DHT22;72655;47.596;7.658;2023-10-19T07:34:25;13.20;99.90
82877;DHT22;72655;47.596;7.658;2023-10-19T07:36:54;13.10;99.90
82877;DHT22;72655;47.596;7.658;2023-10-19T07:39:21;13.10;99.90
82877;DHT22;72655;47.596;7.658;2023-10-19T07:41:48;13.10;99.90
82877;DHT22;72655;47.596;7.658;2023-10-19T07:44:15;13.20;99.90
82877;DHT22;72655;47.596;7.658;2023-10-19T07:46:44;13.20;99.90
82877;DHT22;72655;47.596;7.658;2023-10-19T07:49:10;13.30;99.90
82877;DHT22;72655;47.596;7.658;2023-10-19T07:51:44;13.30;99.90
82877;DHT22;72655;47.596;7.658;2023-10-19T07:54:12;13.40;99.90
82877;DHT22;72655;47.596;7.658;2023-10-19T07:56:39;13.40;99.90
82877;DHT22;72655;47.596;7.658;2023-10-19T07:59:07;13.30;99.90
82877;DHT22;72655;47.596;7.658;2023-10-19T08:01:34;13.30;99.90
82877;DHT22;72655;47.596;7.658;2023-10-19T08:04:03;13.40;99.90
82877;DHT22;72655;47.596;7.658;2023-10-19T08:06:31;13.30;99.90
82877;DHT22;72655;47.596;7.658;2023-10-19T08:08:58;13.40;99.90
82877;DHT22;72655;47.596;7.658;2023-10-19T08:11:25;13.40;99.90
82877;DHT22;72655;47.596;7.658;2023-10-19T08:13:52;13.50;99.90
82877;DHT22;72655;47.596;7.658;2023-10-19T08:16:20;13.50;99.90
82877;DHT22;72655;47.596;7.658;2023-10-19T08:18:48;13.60;99.90
82877;DHT22;72655;47.596;7.658;2023-10-19T08:21:18;13.50;99.90
82877;DHT22;72655;47.596;7.658;2023-10-19T08:23:46;13.60;99.90
82877;DHT22;72655;47.596;7.658;2023-10-19T08:26:13;13.60;99.90
82877;DHT22;72655;47.596;7.658;2023-10-19T08:28:41;13.50;99.90
82877;DHT22;72655;47.596;7.658;2023-10-19T08:31:09;13.50;99.90
82877;DHT22;72655;47.596;7.658;2023-10-19T08:33:36;13.60;99.90
82877;DHT22;72655;47.596;7.658;2023-10-19T08:36:15;13.60;99.90
82877;DHT22;72655;47.596;7.658;2023-10-19T08:38:46;13.60;99.90
82877;DHT22;72655;47.596;7.658;2023-10-19T08:41:13;13.70;99.90
82877;DHT22;72655;47.596;7.658;2023-10-19T08:43:41;13.70;99.90
82877;DHT22;72655;47.596;7.658;2023-10-19T08:46:10;13.70;99.90
82877;DHT22;72655;47.596;7.658;2023-10-19T08:48:39;13.80;99.90
82877;DHT22;72655;47.596;7.658;2023-10-19T08:51:09;13.80;99.90
82877;DHT22;72655;47.596;7.658;2023-10-19T08:53:37;13.80;99.90
82877;DHT22;72655;47.596;7.658;2023-10-19T08:56:08;13.80;99.90
82877;DHT22;72655;47.596;7.658;2023-10-19T08:58:37;13.80;99.90
82877;DHT22;72655;47.596;7.658;2023-10-19T09:01:04;13.80;99.90
82877;DHT22;72655;47.596;7.658;2023-10-19T09:03:35;13.80;99.90
82877;DHT22;72655;47.596;7.658;2023-10-19T09:06:04;13.70;99.90
82877;DHT22;72655;47.596;7.658;2023-10-19T09:08:32;13.80;99.90
82877;DHT22;72655;47.596;7.658;2023-10-19T09:11:08;13.70;99.90
82877;DHT22;72655;47.596;7.658;2023-10-19T09:13:44;13.80;99.90
82877;DHT22;72655;47.596;7.658;2023-10-19T09:16:13;13.90;99.90
82877;DHT22;72655;47.596;7.658;2023-10-19T09:18:40;13.90;99.90
82877;DHT22;72655;47.596;7.658;2023-10-19T09:21:07;14.00;99.90
82877;DHT22;72655;47.596;7.658;2023-10-19T09:23:37;14.00;99.90
82877;DHT22;72655;47.596;7.658;2023-10-19T09:26:05;14.10;99.90
82877;DHT22;72655;47.596;7.658;2023-10-19T09:28:36;14.00;99.90
82877;DHT22;72655;47.596;7.658;2023-10-19T09:31:04;14.00;99.90
82877;DHT22;72655;47.596;7.658;2023-10-19T09:33:33;14.00;99.90
82877;DHT22;72655;47.596;7.658;2023-10-19T09:36:01;14.00;99.90
82877;DHT22;72655;47.596;7.658;2023-10-19T09:38:30;14.10;99.90
82877;DHT22;72655;47.596;7.658;2023-10-19T09:40:57;14.20;99.90
82877;DHT22;72655;47.596;7.658;2023-10-19T09:43:33;14.30;99.90
82877;DHT22;72655;47.596;7.658;2023-10-19T09:46:06;14.40;99.90
82877;DHT22;72655;47.596;7.658;2023-10-19T09:48:39;14.40;99.90
82877;DHT22;72655;47.596;7.658;2023-10-19T09:51:08;14.40;99.90
82877;DHT22;72655;47.596;7.658;2023-10-19T09:53:36;14.40;99.90
82877;DHT22;72655;47.596;7.658;2023-10-19T09:56:06;14.40;99.90
82877;DHT22;72655;47.596;7.658;2023-10-19T09:58:36;14.40;99.90
82877;DHT22;72655;47.596;7.658;2023-10-19T10:01:05;14.50;99.90
82877;DHT22;72655;47.596;7.658;2023-10-19T10:03:48;14.50;99.90
82877;DHT22;72655;47.596;7.658;2023-10-19T10:06:17;14.60;99.90
82877;DHT22;72655;47.596;7.658;2023-10-19T10:08:53;14.60;99.90
82877;DHT22;72655;47.596;7.658;2023-10-19T10:11:21;14.60;99.90
82877;DHT22;72655;47.596;7.658;2023-10-19T10:13:50;14.60;99.90
82877;DHT22;72655;47.596;7.658;2023-10-19T10:16:21;14.70;99.90
82877;DHT22;72655;47.596;7.658;2023-10-19T10:18:50;14.80;99.90
82877;DHT22;72655;47.596;7.658;2023-10-19T10:21:19;14.80;99.90
82877;DHT22;72655;47.596;7.658;2023-10-19T10:23:48;14.90;99.90
82877;DHT22;72655;47.596;7.658;2023-10-19T10:26:16;15.00;99.90
82877;DHT22;72655;47.596;7.658;2023-10-19T10:28:47;15.00;99.90
82877;DHT22;72655;47.596;7.658;2023-10-19T10:31:20;15.00;99.90
82877;DHT22;72655;47.596;7.658;2023-10-19T10:33:49;15.00;99.90
82877;DHT22;72655;47.596;7.658;2023-10-19T10:36:18;15.00;99.90
82877;DHT22;72655;47.596;7.658;2023-10-19T10:38:46;15.00;99.90
82877;DHT22;72655;47.596;7.658;2023-10-19T10:41:20;15.00;99.90
82877;DHT22;72655;47.596;7.658;2023-10-19T10:43:51;15.10;99.90
82877;DHT22;72655;47.596;7.658;2023-10-19T10:46:22;15.10;99.90
82877;DHT22;72655;47.596;7.658;2023-10-19T10:48:49;15.10;99.90
82877;DHT22;72655;47.596;7.658;2023-10-19T10:51:21;15.20;99.90
82877;DHT22;72655;47.596;7.658;2023-10-19T10:53:49;15.20;99.90
82877;DHT22;72655;47.596;7.658;2023-10-19T10:56:17;15.20;99.90
82877;DHT22;72655;47.596;7.658;2023-10-19T10:58:45;15.20;99.90
82877;DHT22;72655;47.596;7.658;2023-10-19T11:01:13;15.20;99.90
82877;DHT22;72655;47.596;7.658;2023-10-19T11:03:42;15.20;99.90
82877;DHT22;72655;47.596;7.658;2023-10-19T11:06:10;15.20;99.90
82877;DHT22;72655;47.596;7.658;2023-10-19T11:08:38;15.20;99.90
82877;DHT22;72655;47.596;7.658;2023-10-19T11:11:08;15.20;99.90
82877;DHT22;72655;47.596;7.658;2023-10-19T11:13:38;15.20;99.90
82877;DHT22;72655;47.596;7.658;2023-10-19T11:16:06;15.20;99.90
82877;DHT22;72655;47.596;7.658;2023-10-19T11:18:36;15.20;99.90
82877;DHT22;72655;47.596;7.658;2023-10-19T11:21:08;15.20;99.90
82877;DHT22;72655;47.596;7.658;2023-10-19T11:23:43;15.20;99.90
82877;DHT22;72655;47.596;7.658;2023-10-19T11:26:13;15.20;99.90
82877;DHT22;72655;47.596;7.658;2023-10-19T11:28:40;15.10;99.90
82877;DHT22;72655;47.596;7.658;2023-10-19T11:31:14;15.10;99.90
82877;DHT22;72655;47.596;7.658;2023-10-19T11:33:42;15.00;99.90
82877;DHT22;72655;47.596;7.658;2023-10-19T11:36:11;15.00;99.90
82877;DHT22;72655;47.596;7.658;2023-10-19T11:38:42;15.00;99.90
82877;DHT22;72655;47.596;7.658;2023-10-19T11:41:10;15.00;99.90
82877;DHT22;72655;47.596;7.658;2023-10-19T11:43:38;15.10;99.90
82877;DHT22;72655;47.596;7.658;2023-10-19T11:46:05;15.10;99.90
82877;DHT22;72655;47.596;7.658;2023-10-19T11:48:33;15.00;99.90
82877;DHT22;72655;47.596;7.658;2023-10-19T11:51:01;15.00;99.90
82877;DHT22;72655;47.596;7.658;2023-10-19T11:53:32;15.00;99.90
82877;DHT22;72655;47.596;7.658;2023-10-19T11:56:01;15.00;99.90
82877;DHT22;72655;47.596;7.658;2023-10-19T11:58:29;15.00;99.90
82877;DHT22;72655;47.596;7.658;2023-10-19T12:00:58;14.90;99.90
82877;DHT22;72655;47.596;7.658;2023-10-19T12:03:25;14.90;99.90
82877;DHT22;72655;47.596;7.658;2023-10-19T12:05:52;14.90;99.90
82877;DHT22;72655;47.596;7.658;2023-10-19T12:08:21;14.90;99.90
82877;DHT22;72655;47.596;7.658;2023-10-19T12:10:51;15.00;99.90
82877;DHT22;72655;47.596;7.658;2023-10-19T12:13:18;15.00;99.90
82877;DHT22;72655;47.596;7.658;2023-10-19T12:15:44;15.10;99.90
82877;DHT22;72655;47.596;7.658;2023-10-19T12:18:18;15.00;99.90
82877;DHT22;72655;47.596;7.658;2023-10-19T12:20:45;15.00;99.90
82877;DHT22;72655;47.596;7.658;2023-10-19T12:23:13;15.00;99.90
82877;DHT22;72655;47.596;7.658;2023-10-19T12:25:40;15.10;99.90
82877;DHT22;72655;47.596;7.658;2023-10-19T12:28:10;15.10;99.90
82877;DHT22;72655;47.596;7.658;2023-10-19T12:30:41;15.10;99.90
82877;DHT22;72655;47.596;7.658;2023-10-19T12:33:08;15.20;99.90
82877;DHT22;72655;47.596;7.658;2023-10-19T12:35:38;15.30;99.90
82877;DHT22;72655;47.596;7.658;2023-10-19T12:38:13;15.40;99.90
82877;DHT22;72655;47.596;7.658;2023-10-19T12:40:46;15.40;99.90
82877;DHT22;72655;47.596;7.658;2023-10-19T12:43:16;15.40;99.90
82877;DHT22;72655;47.596;7.658;2023-10-19T12:45:44;15.40;99.90
82877;DHT22;72655;47.596;7.658;2023-10-19T12:48:16;15.40;99.90
82877;DHT22;72655;47.596;7.658;2023-10-19T12:50:43;15.40;99.90
82877;DHT22;72655;47.596;7.658;2023-10-19T12:53:10;15.50;99.90
82877;DHT22;72655;47.596;7.658;2023-10-19T12:55:37;15.60;99.90
82877;DHT22;72655;47.596;7.658;2023-10-19T12:58:04;15.60;99.90
82877;DHT22;72655;47.596;7.658;2023-10-19T13:00:36;15.70;99.90
82877;DHT22;72655;47.596;7.658;2023-10-19T13:03:07;15.80;99.90
82877;DHT22;72655;47.596;7.658;2023-10-19T13:05:34;15.90;99.90
82877;DHT22;72655;47.596;7.658;2023-10-19T13:08:02;16.00;99.90
82877;DHT22;72655;47.596;7.658;2023-10-19T13:10:29;16.10;99.90
82877;DHT22;72655;47.596;7.658;2023-10-19T13:12:59;16.20;99.90
82877;DHT22;72655;47.596;7.658;2023-10-19T13:15:29;16.30;99.90
82877;DHT22;72655;47.596;7.658;2023-10-19T13:17:58;16.50;99.90
82877;DHT22;72655;47.596;7.658;2023-10-19T13:20:25;16.90;99.90
82877;DHT22;72655;47.596;7.658;2023-10-19T13:22:52;17.20;99.90
82877;DHT22;72655;47.596;7.658;2023-10-19T13:25:19;17.30;99.90
82877;DHT22;72655;47.596;7.658;2023-10-19T13:28:05;17.50;99.90
82877;DHT22;72655;47.596;7.658;2023-10-19T13:30:35;17.70;99.90
82877;DHT22;72655;47.596;7.658;2023-10-19T13:33:05;18.30;99.90
82877;DHT22;72655;47.596;7.658;2023-10-19T13:38:37;19.30;99.90
82877;DHT22;72655;47.596;7.658;2023-10-19T13:41:04;18.90;99.90
82877;DHT22;72655;47.596;7.658;2023-10-19T13:43:33;18.60;99.90
82877;DHT22;72655;47.596;7.658;2023-10-19T13:46:00;18.40;99.90
82877;DHT22;72655;47.596;7.658;2023-10-19T13:48:29;18.40;99.90
82877;DHT22;72655;47.596;7.658;2023-10-19T13:50:55;18.50;99.90
82877;DHT22;72655;47.596;7.658;2023-10-19T13:53:25;18.50;99.90
82877;DHT22;72655;47.596;7.658;2023-10-19T13:55:52;18.50;99.90
82877;DHT22;72655;47.596;7.658;2023-10-19T13:58:19;18.40;99.90
82877;DHT22;72655;47.596;7.658;2023-10-19T14:00:52;18.20;99.90
82877;DHT22;72655;47.596;7.658;2023-10-19T14:03:19;18.00;99.90
82877;DHT22;72655;47.596;7.658;2023-10-19T14:05:48;17.90;99.90
82877;DHT22;72655;47.596;7.658;2023-10-19T14:08:16;17.70;99.90
82877;DHT22;72655;47.596;7.658;2023-10-19T14:10:43;17.60;99.90
82877;DHT22;72655;47.596;7.658;2023-10-19T14:13:10;17.50;99.90
82877;DHT22;72655;47.596;7.658;2023-10-19T14:15:38;17.30;99.90
82877;DHT22;72655;47.596;7.658;2023-10-19T14:18:05;17.30;99.90
82877;DHT22;72655;47.596;7.658;2023-10-19T14:20:31;17.20;99.90
82877;DHT22;72655;47.596;7.658;2023-10-19T14:23:01;17.10;99.90
82877;DHT22;72655;47.596;7.658;2023-10-19T14:25:30;17.10;99.90
82877;DHT22;72655;47.596;7.658;2023-10-19T14:27:56;17.10;99.90
82877;DHT22;72655;47.596;7.658;2023-10-19T14:30:25;17.10;99.90
82877;DHT22;72655;47.596;7.658;2023-10-19T14:32:52;17.00;99.90
82877;DHT22;72655;47.596;7.658;2023-10-19T14:35:20;17.00;99.90
82877;DHT22;72655;47.596;7.658;2023-10-19T14:37:48;17.00;99.90
82877;DHT22;72655;47.596;7.658;2023-10-19T14:40:16;16.90;99.90
82877;DHT22;72655;47.596;7.658;2023-10-19T14:42:45;16.90;99.90
82877;DHT22;72655;47.596;7.658;2023-10-19T14:45:12;16.80;99.90
82877;DHT22;72655;47.596;7.658;2023-10-19T14:47:39;16.80;99.90
82877;DHT22;72655;47.596;7.658;2023-10-19T14:50:07;16.70;99.90
82877;DHT22;72655;47.596;7.658;2023-10-19T14:52:34;16.60;99.90
82877;DHT22;72655;47.596;7.658;2023-10-19T14:55:01;16.60;99.90
82877;DHT22;72655;47.596;7.658;2023-10-19T14:57:29;16.50;99.90
82877;DHT22;72655;47.596;7.658;2023-10-19T14:59:57;16.50;99.90
82877;DHT22;72655;47.596;7.658;2023-10-19T15:02:29;16.40;99.90
82877;DHT22;72655;47.596;7.658;2023-10-19T15:04:56;16.40;99.90
82877;DHT22;72655;47.596;7.658;2023-10-19T15:07:23;16.40;99.90
82877;DHT22;72655;47.596;7.658;2023-10-19T15:09:50;16.40;99.90
82877;DHT22;72655;47.596;7.658;2023-10-19T15:12:17;16.50;99.90
82877;DHT22;72655;47.596;7.658;2023-10-19T15:14:46;16.50;99.90
82877;DHT22;72655;47.596;7.658;2023-10-19T15:17:13;16.50;99.90
82877;DHT22;72655;47.596;7.658;2023-10-19T15:19:39;16.50;99.90
82877;DHT22;72655;47.596;7.658;2023-10-19T15:22:06;16.50;99.90
82877;DHT22;72655;47.596;7.658;2023-10-19T15:24:33;16.50;99.90
82877;DHT22;72655;47.596;7.658;2023-10-19T15:27:00;16.50;99.90
82877;DHT22;72655;47.596;7.658;2023-10-19T15:29:28;16.40;99.90
82877;DHT22;72655;47.596;7.658;2023-10-19T15:31:56;16.40;99.90
82877;DHT22;72655;47.596;7.658;2023-10-19T15:34:22;16.40;99.90
82877;DHT22;72655;47.596;7.658;2023-10-19T15:36:50;16.40;99.90
82877;DHT22;72655;47.596;7.658;2023-10-19T15:39:17;16.40;99.90
82877;DHT22;72655;47.596;7.658;2023-10-19T15:41:44;16.40;99.90
82877;DHT22;72655;47.596;7.658;2023-10-19T15:44:10;16.30;99.90
82877;DHT22;72655;47.596;7.658;2023-10-19T15:46:37;16.30;99.90
82877;DHT22;72655;47.596;7.658;2023-10-19T15:49:06;16.20;99.90
82877;DHT22;72655;47.596;7.658;2023-10-19T15:51:34;16.20;99.90
82877;DHT22;72655;47.596;7.658;2023-10-19T15:54:01;16.20;99.90
82877;DHT22;72655;47.596;7.658;2023-10-19T15:56:30;16.10;99.90
82877;DHT22;72655;47.596;7.658;2023-10-19T15:58:57;16.10;99.90
82877;DHT22;72655;47.596;7.658;2023-10-19T16:01:24;16.10;99.90
82877;DHT22;72655;47.596;7.658;2023-10-19T16:03:51;16.20;99.90
82877;DHT22;72655;47.596;7.658;2023-10-19T16:06:19;16.20;99.90
82877;DHT22;72655;47.596;7.658;2023-10-19T16:08:46;16.20;99.90
82877;DHT22;72655;47.596;7.658;2023-10-19T16:11:12;16.10;99.90
82877;DHT22;72655;47.596;7.658;2023-10-19T16:13:39;16.10;99.90
82877;DHT22;72655;47.596;7.658;2023-10-19T16:16:08;16.10;99.90
82877;DHT22;72655;47.596;7.658;2023-10-19T16:18:36;16.00;99.90
82877;DHT22;72655;47.596;7.658;2023-10-19T16:21:03;16.00;99.90
82877;DHT22;72655;47.596;7.658;2023-10-19T16:23:32;16.00;99.90
82877;DHT22;72655;47.596;7.658;2023-10-19T16:25:59;15.90;99.90
82877;DHT22;72655;47.596;7.658;2023-10-19T16:28:26;15.90;99.90
82877;DHT22;72655;47.596;7.658;2023-10-19T16:30:52;15.90;99.90
82877;DHT22;72655;47.596;7.658;2023-10-19T16:33:19;15.90;99.90
82877;DHT22;72655;47.596;7.658;2023-10-19T16:35:46;15.90;99.90
82877;DHT22;72655;47.596;7.658;2023-10-19T16:38:13;15.90;99.90
82877;DHT22;72655;47.596;7.658;2023-10-19T16:40:41;15.90;99.90
82877;DHT22;72655;47.596;7.658;2023-10-19T16:43:08;15.90;99.90
82877;DHT22;72655;47.596;7.658;2023-10-19T16:45:35;15.90;99.90
82877;DHT22;72655;47.596;7.658;2023-10-19T16:48:02;15.90;99.90
82877;DHT22;72655;47.596;7.658;2023-10-19T16:50:29;15.90;99.90
82877;DHT22;72655;47.596;7.658;2023-10-19T16:52:56;15.90;99.90
82877;DHT22;72655;47.596;7.658;2023-10-19T16:55:24;15.90;99.90
82877;DHT22;72655;47.596;7.658;2023-10-19T16:57:52;15.90;99.90
82877;DHT22;72655;47.596;7.658;2023-10-19T17:00:20;15.90;99.90
82877;DHT22;72655;47.596;7.658;2023-10-19T17:02:47;15.80;99.90
82877;DHT22;72655;47.596;7.658;2023-10-19T17:05:14;15.80;99.90
82877;DHT22;72655;47.596;7.658;2023-10-19T17:07:41;15.80;99.90
82877;DHT22;72655;47.596;7.658;2023-10-19T17:10:08;15.80;99.90
82877;DHT22;72655;47.596;7.658;2023-10-19T17:12:35;15.80;99.90
82877;DHT22;72655;47.596;7.658;2023-10-19T17:15:04;15.80;99.90
82877;DHT22;72655;47.596;7.658;2023-10-19T17:17:31;15.80;99.90
82877;DHT22;72655;47.596;7.658;2023-10-19T17:19:58;15.80;99.90
82877;DHT22;72655;47.596;7.658;2023-10-19T17:22:25;15.90;99.90
82877;DHT22;72655;47.596;7.658;2023-10-19T17:24:52;15.90;99.90
82877;DHT22;72655;47.596;7.658;2023-10-19T17:27:19;15.90;99.90
82877;DHT22;72655;47.596;7.658;2023-10-19T17:29:46;15.80;99.90
82877;DHT22;72655;47.596;7.658;2023-10-19T17:32:14;15.80;99.90
82877;DHT22;72655;47.596;7.658;2023-10-19T17:34:41;15.80;99.90
82877;DHT22;72655;47.596;7.658;2023-10-19T17:37:08;15.80;99.90
82877;DHT22;72655;47.596;7.658;2023-10-19T17:39:35;15.80;99.90
82877;DHT22;72655;47.596;7.658;2023-10-19T17:42:02;15.80;99.90
82877;DHT22;72655;47.596;7.658;2023-10-19T17:44:29;15.70;99.90
82877;DHT22;72655;47.596;7.658;2023-10-19T17:46:56;15.70;99.90
82877;DHT22;72655;47.596;7.658;2023-10-19T17:49:24;15.70;99.90
82877;DHT22;72655;47.596;7.658;2023-10-19T17:51:51;15.60;99.90
82877;DHT22;72655;47.596;7.658;2023-10-19T17:54:18;15.60;99.90
82877;DHT22;72655;47.596;7.658;2023-10-19T17:56:45;15.60;99.90
82877;DHT22;72655;47.596;7.658;2023-10-19T17:59:12;15.60;99.90
82877;DHT22;72655;47.596;7.658;2023-10-19T18:01:39;15.60;99.90
82877;DHT22;72655;47.596;7.658;2023-10-19T18:04:06;15.60;99.90
82877;DHT22;72655;47.596;7.658;2023-10-19T18:06:35;15.60;99.90
82877;DHT22;72655;47.596;7.658;2023-10-19T18:09:02;15.60;99.90
82877;DHT22;72655;47.596;7.658;2023-10-19T18:11:30;15.60;99.90
82877;DHT22;72655;47.596;7.658;2023-10-19T18:13:57;15.50;99.90
82877;DHT22;72655;47.596;7.658;2023-10-19T18:16:24;15.50;99.90
82877;DHT22;72655;47.596;7.658;2023-10-19T18:18:51;15.50;99.90
82877;DHT22;72655;47.596;7.658;2023-10-19T18:21:18;15.50;99.90
82877;DHT22;72655;47.596;7.658;2023-10-19T18:23:46;15.50;99.90
82877;DHT22;72655;47.596;7.658;2023-10-19T18:26:13;15.50;99.90
82877;DHT22;72655;47.596;7.658;2023-10-19T18:28:41;15.50;99.90
82877;DHT22;72655;47.596;7.658;2023-10-19T18:31:09;15.50;99.90
82877;DHT22;72655;47.596;7.658;2023-10-19T18:33:37;15.50;99.90
82877;DHT22;72655;47.596;7.658;2023-10-19T18:36:04;15.50;99.90
82877;DHT22;72655;47.596;7.658;2023-10-19T18:38:31;15.60;99.90
82877;DHT22;72655;47.596;7.658;2023-10-19T18:41:00;15.50;99.90
82877;DHT22;72655;47.596;7.658;2023-10-19T18:43:28;15.50;99.90
